createdAt,value
2022-09-28T00:00:08.716Z,26.10
2022-09-28T00:02:39.269Z,27.35
2022-09-28T00:05:10.194Z,35.65
2022-09-28T00:07:40.820Z,42.33
2022-09-28T00:10:11.681Z,34.88
2022-09-28T00:12:42.487Z,40.95
2022-09-28T00:15:13.280Z,30.17
2022-09-28T00:17:43.832Z,35.22
2022-09-28T00:20:15.286Z,28.20
2022-09-28T00:22:45.699Z,33.00
2022-09-28T00:25:16.153Z,31.65
2022-09-28T00:27:52.002Z,29.83
2022-09-28T00:30:22.409Z,32.58
2022-09-28T00:32:52.929Z,33.90
2022-09-28T00:35:23.211Z,28.85
2022-09-28T00:37:54.269Z,34.15
2022-09-28T00:40:24.721Z,36.28
2022-09-28T00:42:55.317Z,35.35
2022-09-28T00:45:29.270Z,35.92
2022-09-28T00:48:02.742Z,32.10
2022-09-28T00:50:38.634Z,32.67
2022-09-28T00:53:25.275Z,39.92
2022-09-28T00:56:05.701Z,33.30
2022-09-28T00:58:43.290Z,40.55
2022-09-28T01:01:14.669Z,42.83
2022-09-28T01:03:50.105Z,46.53
2022-09-28T01:06:25.610Z,46.35
2022-09-28T01:09:00.471Z,43.25
2022-09-28T01:11:33.323Z,49.97
2022-09-28T01:14:05.432Z,45.95
2022-09-28T01:17:04.050Z,57.47
2022-09-28T01:20:04.636Z,51.28
2022-09-28T01:23:14.987Z,51.13
2022-09-28T01:26:04.788Z,49.17
2022-09-28T01:28:35.666Z,37.90
2022-09-28T01:31:13.504Z,34.05
2022-09-28T01:33:54.422Z,38.50
2022-09-28T01:36:39.531Z,36.22
2022-09-28T01:39:17.662Z,36.08
2022-09-28T01:41:53.586Z,39.15
2022-09-28T01:44:26.043Z,40.78
2022-09-28T01:46:57.040Z,39.30
2022-09-28T01:49:36.282Z,33.28
2022-09-28T01:52:16.717Z,37.92
2022-09-28T01:54:59.178Z,38.47
2022-09-28T01:57:36.964Z,47.97
2022-09-28T02:00:12.711Z,43.13
2022-09-28T02:02:58.306Z,46.50
2022-09-28T02:05:34.872Z,43.10
2022-09-28T02:08:29.146Z,50.85
2022-09-28T02:11:17.590Z,40.75
2022-09-28T02:13:59.407Z,44.17
2022-09-28T02:16:47.147Z,45.75
2022-09-28T02:19:21.814Z,52.80
2022-09-28T02:22:07.987Z,48.75
2022-09-28T02:24:45.456Z,40.60
2022-09-28T02:27:24.175Z,49.13
2022-09-28T02:29:54.582Z,44.45
2022-09-28T02:32:26.531Z,49.33
2022-09-28T02:34:58.215Z,45.65
2022-09-28T02:37:29.912Z,42.88
2022-09-28T02:40:00.340Z,48.38
2022-09-28T02:42:51.746Z,50.25
2022-09-28T02:45:59.802Z,48.92
2022-09-28T02:49:10.516Z,41.50
2022-09-28T02:52:06.342Z,45.75
2022-09-28T02:55:10.218Z,43.20
2022-09-28T02:58:09.083Z,39.15
2022-09-28T03:00:47.733Z,49.17
2022-09-28T03:03:37.353Z,45.88
2022-09-28T03:06:22.769Z,42.90
2022-09-28T03:09:05.472Z,46.30
2022-09-28T03:11:43.312Z,47.72
2022-09-28T03:14:14.789Z,53.58
2022-09-28T03:16:48.828Z,56.20
2022-09-28T03:19:22.052Z,51.60
2022-09-28T03:21:52.311Z,57.80
2022-09-28T03:24:22.696Z,53.33
2022-09-28T03:26:53.356Z,63.92
2022-09-28T03:29:23.998Z,64.85
2022-09-28T03:31:54.497Z,58.55
2022-09-28T03:34:24.996Z,57.65
2022-09-28T03:36:55.323Z,61.92
2022-09-28T03:39:25.811Z,58.58
2022-09-28T03:41:56.170Z,58.90
2022-09-28T03:44:26.591Z,60.25
2022-09-28T03:46:56.883Z,57.50
2022-09-28T03:49:27.403Z,56.50
2022-09-28T03:51:57.691Z,52.42
2022-09-28T03:54:28.151Z,45.65
2022-09-28T03:56:58.701Z,46.95
2022-09-28T03:59:28.993Z,42.55
2022-09-28T04:01:59.969Z,55.55
2022-09-28T04:04:30.277Z,48.05
2022-09-28T04:07:01.126Z,46.67
2022-09-28T04:09:31.543Z,49.05
2022-09-28T04:12:04.317Z,44.50
2022-09-28T04:14:35.083Z,56.92
2022-09-28T04:17:05.616Z,44.65
2022-09-28T04:19:36.121Z,47.28
2022-09-28T04:22:07.034Z,59.53
2022-09-28T04:24:37.447Z,55.08
2022-09-28T04:27:27.297Z,50.53
2022-09-28T04:29:57.590Z,47.60
2022-09-28T04:32:28.155Z,48.88
2022-09-28T04:34:58.480Z,54.38
2022-09-28T04:37:28.918Z,54.65
2022-09-28T04:39:59.558Z,42.75
2022-09-28T04:42:30.063Z,51.22
2022-09-28T04:45:00.878Z,39.60
2022-09-28T04:47:33.073Z,49.80
2022-09-28T04:50:03.391Z,38.53
2022-09-28T04:52:34.100Z,41.20
2022-09-28T04:55:04.580Z,35.95
2022-09-28T04:57:37.786Z,36.83
2022-09-28T05:00:09.177Z,33.47
2022-09-28T05:02:39.899Z,32.78
2022-09-28T05:05:10.677Z,26.63
2022-09-28T05:07:41.357Z,38.65
2022-09-28T05:10:11.823Z,33.88
2022-09-28T05:12:42.415Z,47.97
2022-09-28T05:15:13.861Z,32.30
2022-09-28T05:17:44.394Z,22.63
2022-09-28T05:20:15.200Z,31.15
2022-09-28T05:22:45.672Z,33.17
2022-09-28T05:25:16.060Z,31.70
2022-09-28T05:27:46.681Z,29.10
2022-09-28T05:30:17.803Z,19.50
2022-09-28T05:32:48.317Z,26.85
2022-09-28T05:35:22.923Z,30.52
2022-09-28T05:37:53.380Z,32.13
2022-09-28T05:40:24.053Z,34.30
2022-09-28T05:42:54.438Z,29.35
2022-09-28T05:45:24.729Z,29.15
2022-09-28T05:47:56.116Z,23.85
2022-09-28T05:50:27.157Z,22.70
2022-09-28T05:53:07.014Z,27.35
2022-09-28T05:55:38.761Z,27.10
2022-09-28T05:58:10.626Z,25.25
2022-09-28T06:00:41.015Z,30.85
2022-09-28T06:03:15.231Z,23.35
2022-09-28T06:05:45.720Z,23.00
2022-09-28T06:08:16.757Z,22.98
2022-09-28T06:10:47.303Z,16.42
2022-09-28T06:13:17.971Z,14.18
2022-09-28T06:15:48.462Z,18.55
2022-09-28T06:18:18.862Z,17.80
2022-09-28T06:20:50.500Z,18.00
2022-09-28T06:23:20.953Z,18.70
2022-09-28T06:25:51.377Z,18.23
2022-09-28T06:28:21.797Z,15.48
2022-09-28T06:30:52.316Z,14.95
2022-09-28T06:33:22.894Z,17.02
2022-09-28T06:35:54.222Z,19.17
2022-09-28T06:38:24.668Z,17.75
2022-09-28T06:40:55.097Z,19.48
2022-09-28T06:43:25.624Z,18.73
2022-09-28T06:45:56.984Z,29.00
2022-09-28T06:48:27.558Z,23.27
2022-09-28T06:51:00.488Z,14.93
2022-09-28T06:53:31.865Z,19.02
2022-09-28T06:56:04.606Z,18.08
2022-09-28T06:58:35.069Z,19.02
2022-09-28T07:01:06.277Z,14.38
2022-09-28T07:03:36.946Z,17.55
2022-09-28T07:06:07.374Z,13.68
2022-09-28T07:08:38.077Z,21.08
2022-09-28T07:11:10.260Z,15.43
2022-09-28T07:13:50.439Z,22.38
2022-09-28T07:16:26.519Z,20.50
2022-09-28T07:18:57.593Z,22.65
2022-09-28T07:21:30.429Z,29.25
2022-09-28T07:24:02.037Z,22.40
2022-09-28T07:26:35.373Z,18.33
2022-09-28T07:29:06.003Z,22.08
2022-09-28T07:31:37.266Z,14.20
2022-09-28T07:34:07.716Z,15.23
2022-09-28T07:36:38.621Z,15.68
2022-09-28T07:39:09.268Z,22.42
2022-09-28T07:41:41.778Z,20.23
2022-09-28T07:44:12.628Z,20.73
2022-09-28T07:46:44.083Z,18.33
2022-09-28T07:49:14.912Z,13.40
2022-09-28T07:51:46.810Z,24.67
2022-09-28T07:54:17.280Z,19.17
2022-09-28T07:56:50.483Z,12.75
2022-09-28T07:59:21.410Z,14.25
2022-09-28T08:01:51.816Z,19.98
2022-09-28T08:04:23.283Z,18.10
2022-09-28T08:06:53.733Z,28.92
2022-09-28T08:09:24.478Z,17.70
2022-09-28T08:11:54.801Z,19.38
2022-09-28T08:14:25.925Z,22.58
2022-09-28T08:16:56.654Z,17.90
2022-09-28T08:19:27.365Z,32.65
2022-09-28T08:21:57.868Z,23.98
2022-09-28T08:24:33.302Z,18.27
2022-09-28T08:27:03.659Z,19.38
2022-09-28T08:29:34.390Z,21.98
2022-09-28T08:32:05.298Z,18.10
2022-09-28T08:34:35.917Z,17.45
2022-09-28T08:37:06.987Z,23.30
2022-09-28T08:39:38.006Z,23.85
2022-09-28T08:42:41.836Z,22.13
2022-09-28T08:45:23.263Z,24.42
2022-09-28T08:48:21.380Z,24.52
2022-09-28T08:51:05.477Z,27.67
2022-09-28T08:54:11.081Z,18.20
2022-09-28T08:56:50.065Z,22.08
2022-09-28T08:59:27.292Z,20.63
2022-09-28T09:02:03.196Z,17.67
2022-09-28T09:04:36.412Z,20.40
2022-09-28T09:07:33.138Z,20.15
2022-09-28T09:10:33.010Z,22.80
2022-09-28T09:13:33.018Z,25.23
2022-09-28T09:16:29.035Z,22.60
2022-09-28T09:19:22.562Z,20.45
2022-09-28T09:22:25.884Z,25.52
2022-09-28T09:25:20.302Z,26.38
2022-09-28T09:28:24.004Z,17.60
2022-09-28T09:31:10.855Z,23.17
2022-09-28T09:34:07.540Z,20.85
2022-09-28T09:37:14.979Z,23.70
2022-09-28T09:40:17.844Z,22.98
2022-09-28T09:43:09.486Z,16.50
2022-09-28T09:45:59.221Z,25.65
2022-09-28T09:48:52.894Z,30.45
2022-09-28T09:51:41.493Z,21.83
2022-09-28T09:54:36.415Z,26.05
2022-09-28T09:57:18.251Z,19.88
2022-09-28T09:59:49.728Z,25.73
2022-09-28T10:02:30.252Z,24.10
2022-09-28T10:05:09.565Z,20.58
2022-09-28T10:08:17.709Z,20.73
2022-09-28T10:11:14.935Z,22.50
2022-09-28T10:13:46.682Z,24.17
2022-09-28T10:16:19.055Z,26.55
2022-09-28T10:18:51.653Z,31.63
2022-09-28T10:21:26.318Z,26.95
2022-09-28T10:24:04.605Z,23.13
2022-09-28T10:26:41.676Z,20.35
2022-09-28T10:29:22.828Z,30.50
2022-09-28T10:31:55.450Z,67.32
2022-09-28T10:34:32.085Z,56.70
2022-09-28T10:37:06.813Z,37.72
2022-09-28T10:39:42.254Z,58.08
2022-09-28T10:42:16.441Z,66.10
2022-09-28T10:45:04.286Z,121.05
2022-09-28T10:47:36.214Z,89.18
2022-09-28T10:50:17.168Z,84.93
2022-09-28T10:52:48.952Z,38.83
2022-09-28T10:55:34.424Z,77.63
2022-09-28T10:58:30.395Z,68.25
2022-09-28T11:01:11.594Z,61.60
2022-09-28T11:03:54.637Z,74.55
2022-09-28T11:06:32.734Z,52.13
2022-09-28T11:09:10.615Z,46.85
2022-09-28T11:11:45.018Z,34.35
2022-09-28T11:14:42.746Z,24.77
2022-09-28T11:17:29.567Z,29.40
2022-09-28T11:20:04.175Z,36.85
2022-09-28T11:22:44.366Z,68.72
2022-09-28T11:25:34.158Z,81.90
2022-09-28T11:28:07.732Z,40.30
2022-09-28T11:30:54.998Z,46.13
2022-09-28T11:33:47.645Z,48.20
2022-09-28T11:36:42.210Z,45.42
2022-09-28T11:39:27.858Z,50.60
2022-09-28T11:42:16.534Z,52.72
2022-09-28T11:44:51.871Z,41.27
2022-09-28T11:47:44.671Z,33.90
2022-09-28T11:50:52.963Z,34.17
2022-09-28T11:53:46.554Z,38.85
2022-09-28T11:56:33.277Z,28.65
2022-09-28T11:59:17.293Z,47.95
2022-09-28T12:01:54.174Z,33.00
2022-09-28T12:04:39.039Z,40.05
2022-09-28T12:07:41.031Z,49.05
2022-09-28T12:10:45.644Z,43.25
2022-09-28T12:13:35.333Z,37.80
2022-09-28T12:17:00.437Z,38.40
2022-09-28T12:19:37.945Z,29.85
2022-09-28T12:22:23.873Z,38.40
2022-09-28T12:24:56.993Z,40.25
2022-09-28T12:27:55.855Z,36.80
2022-09-28T12:30:27.980Z,32.30
2022-09-28T12:33:07.571Z,33.63
2022-09-28T12:36:07.185Z,38.65
2022-09-28T12:39:24.028Z,40.30
2022-09-28T12:42:36.046Z,35.20
2022-09-28T12:45:53.157Z,31.65
2022-09-28T12:49:33.112Z,32.85
2022-09-28T12:51:58.003Z,29.05
2022-09-28T12:54:55.386Z,30.42
2022-09-28T12:57:48.033Z,26.40
2022-09-28T13:00:25.370Z,30.30
2022-09-28T13:03:33.351Z,33.50
2022-09-28T13:06:32.124Z,31.10
2022-09-28T13:09:27.784Z,26.02
2022-09-28T13:12:16.602Z,24.73
2022-09-28T13:15:17.756Z,37.03
2022-09-28T13:17:57.373Z,33.78
2022-09-28T13:20:58.676Z,33.97
2022-09-28T13:23:41.890Z,30.27
2022-09-28T13:26:33.876Z,47.70
2022-09-28T13:29:11.133Z,47.50
2022-09-28T13:31:53.486Z,58.50
2022-09-28T13:34:31.443Z,40.53
2022-09-28T13:37:23.807Z,50.92
2022-09-28T13:39:58.523Z,49.28
2022-09-28T13:43:01.631Z,49.53
2022-09-28T13:45:51.484Z,36.17
2022-09-28T13:51:30.427Z,50.30
2022-09-28T13:54:19.170Z,36.67
2022-09-28T13:57:12.109Z,41.00
2022-09-28T14:00:06.085Z,30.15
2022-09-28T14:02:43.558Z,36.45
2022-09-28T14:05:36.402Z,35.83
2022-09-28T14:08:33.138Z,41.30
2022-09-28T14:11:43.177Z,40.08
2022-09-28T14:14:46.787Z,36.58
2022-09-28T14:17:52.617Z,35.03
2022-09-28T14:20:27.043Z,32.95
2022-09-28T14:23:12.416Z,37.22
2022-09-28T14:25:48.952Z,40.58
2022-09-28T14:28:42.030Z,42.95
2022-09-28T14:31:23.894Z,46.35
2022-09-28T14:34:02.096Z,51.80
2022-09-28T14:36:52.270Z,43.08
2022-09-28T14:39:44.158Z,45.28
2022-09-28T14:42:20.119Z,50.38
2022-09-28T14:45:23.939Z,40.38
2022-09-28T14:48:17.276Z,47.08
2022-09-28T14:50:49.448Z,40.28
2022-09-28T14:53:24.663Z,37.60
2022-09-28T14:56:00.286Z,41.53
2022-09-28T14:58:32.072Z,41.78
2022-09-28T15:01:08.674Z,47.63
2022-09-28T15:03:42.061Z,35.00
2022-09-28T15:06:18.547Z,32.90
2022-09-28T15:08:49.163Z,31.30
2022-09-28T15:11:23.840Z,34.60
2022-09-28T15:14:08.118Z,39.83
2022-09-28T15:16:38.788Z,42.25
2022-09-28T15:19:33.005Z,42.40
2022-09-28T15:22:03.467Z,39.95
2022-09-28T15:24:36.727Z,33.53
2022-09-28T15:27:19.077Z,34.72
2022-09-28T15:30:27.725Z,40.15
2022-09-28T15:33:18.932Z,44.33
2022-09-28T15:36:07.713Z,37.25
2022-09-28T15:38:38.751Z,45.20
2022-09-28T15:41:11.906Z,44.17
2022-09-28T15:43:43.499Z,56.92
2022-09-28T15:46:21.767Z,43.70
2022-09-28T15:48:57.492Z,41.33
2022-09-28T15:51:29.546Z,46.10
2022-09-28T15:54:21.278Z,45.05
2022-09-28T15:57:06.816Z,54.72
2022-09-28T15:59:41.573Z,42.90
2022-09-28T16:02:24.667Z,46.97
2022-09-28T16:05:00.781Z,48.55
2022-09-28T16:07:41.206Z,53.70
2022-09-28T16:10:33.296Z,48.72
2022-09-28T16:13:22.533Z,53.83
2022-09-28T16:16:01.871Z,57.22
2022-09-28T16:18:35.797Z,46.83
2022-09-28T16:21:31.338Z,42.75
2022-09-28T16:24:01.748Z,46.90
2022-09-28T16:26:39.378Z,39.17
2022-09-28T16:29:27.521Z,44.40
2022-09-28T16:31:58.172Z,38.15
2022-09-28T16:34:32.210Z,31.27
2022-09-28T16:37:02.802Z,35.53
2022-09-28T16:39:33.016Z,39.58
2022-09-28T16:42:05.675Z,41.10
2022-09-28T16:44:37.821Z,32.72
2022-09-28T16:47:17.961Z,34.50
2022-09-28T16:49:48.274Z,34.67
2022-09-28T16:52:38.091Z,33.85
2022-09-28T16:58:08.796Z,45.25
2022-09-28T17:00:39.222Z,31.95
2022-09-28T17:03:20.477Z,37.30
2022-09-28T17:05:51.810Z,39.58
2022-09-28T17:08:25.040Z,39.75
2022-09-28T17:11:24.105Z,41.83
2022-09-28T17:13:58.781Z,47.00
2022-09-28T17:17:02.369Z,39.35
2022-09-28T17:19:26.896Z,39.10
2022-09-28T17:21:57.364Z,50.75
2022-09-28T17:24:27.891Z,51.92
2022-09-28T17:26:59.136Z,45.78
2022-09-28T17:29:30.122Z,44.10
2022-09-28T17:32:00.482Z,34.05
2022-09-28T17:34:30.887Z,35.95
2022-09-28T17:37:01.980Z,34.60
2022-09-28T17:39:33.788Z,40.47
2022-09-28T17:42:04.152Z,36.50
2022-09-28T17:44:34.473Z,29.48
2022-09-28T17:47:04.849Z,31.13
2022-09-28T17:49:35.275Z,29.52
2022-09-28T17:52:07.493Z,34.83
2022-09-28T17:54:37.830Z,30.40
2022-09-28T17:57:08.117Z,30.90
2022-09-28T17:59:38.551Z,32.10
2022-09-28T18:02:11.944Z,33.90
2022-09-28T18:04:51.727Z,31.17
2022-09-28T18:07:22.364Z,27.92
2022-09-28T18:09:58.938Z,35.08
2022-09-28T18:12:29.590Z,28.52
2022-09-28T18:14:59.947Z,33.30
2022-09-28T18:17:30.235Z,30.55
2022-09-28T18:20:00.567Z,24.10
2022-09-28T18:22:30.990Z,25.17
2022-09-28T18:25:01.328Z,28.77
2022-09-28T18:27:32.579Z,24.92
2022-09-28T18:30:03.139Z,29.85
2022-09-28T18:32:33.487Z,30.23
2022-09-28T18:35:03.818Z,32.45
2022-09-28T18:37:38.422Z,30.85
2022-09-28T18:40:12.208Z,32.95
2022-09-28T18:42:43.376Z,36.65
2022-09-28T18:45:14.479Z,34.67
2022-09-28T18:47:45.386Z,28.65
2022-09-28T18:50:17.458Z,23.92
2022-09-28T18:52:49.413Z,25.52
2022-09-28T18:55:19.923Z,28.20
2022-09-28T18:57:50.626Z,25.05
2022-09-28T19:00:21.105Z,30.80
2022-09-28T19:02:51.966Z,26.92
2022-09-28T19:05:22.313Z,26.40
2022-09-28T19:07:52.643Z,28.33
2022-09-28T19:10:22.945Z,27.00
2022-09-28T19:12:54.196Z,28.05
2022-09-28T19:15:24.837Z,31.48
2022-09-28T19:17:55.286Z,33.17
2022-09-28T19:20:25.526Z,27.42
2022-09-28T19:22:56.047Z,28.90
2022-09-28T19:25:26.386Z,35.80
2022-09-28T19:27:56.800Z,26.77
2022-09-28T19:30:27.875Z,26.88
2022-09-28T19:32:58.602Z,32.88
2022-09-28T19:35:29.030Z,25.48
2022-09-28T19:37:59.552Z,29.48
2022-09-28T19:40:29.890Z,24.67
2022-09-28T19:43:01.904Z,23.73
2022-09-28T19:45:32.832Z,26.33
2022-09-28T19:48:05.295Z,24.27
2022-09-28T19:50:35.653Z,31.90
2022-09-28T19:53:08.809Z,28.17
2022-09-28T19:55:39.297Z,26.88
2022-09-28T19:58:10.084Z,24.77
2022-09-28T20:00:40.639Z,30.80
2022-09-28T20:03:10.997Z,32.22
2022-09-28T20:05:43.454Z,34.70
2022-09-28T20:08:17.005Z,31.63
2022-09-28T20:11:03.222Z,30.55
2022-09-28T20:13:37.053Z,36.95
2022-09-28T20:16:10.062Z,30.63
2022-09-28T20:18:45.614Z,33.95
2022-09-28T20:21:18.128Z,30.98
2022-09-28T20:23:50.030Z,39.55
2022-09-28T20:26:20.880Z,30.25
2022-09-28T20:28:51.290Z,31.40
2022-09-28T20:31:24.725Z,27.67
2022-09-28T20:33:55.582Z,29.63
2022-09-28T20:36:27.581Z,28.75
2022-09-28T20:39:00.589Z,32.88
2022-09-28T20:41:35.934Z,28.27
2022-09-28T20:44:08.019Z,30.63
2022-09-28T20:46:39.302Z,27.13
2022-09-28T20:49:09.816Z,27.67
2022-09-28T20:51:40.134Z,24.92
2022-09-28T20:54:10.648Z,30.90
2022-09-28T20:56:41.306Z,29.92
2022-09-28T20:59:14.649Z,30.38
2022-09-28T21:01:45.235Z,28.98
2022-09-28T21:04:15.830Z,27.40
2022-09-28T21:06:46.271Z,26.33
2022-09-28T21:09:16.662Z,28.63
2022-09-28T21:11:47.100Z,33.83
2022-09-28T21:14:17.478Z,30.85
2022-09-28T21:16:47.823Z,27.98
2022-09-28T21:19:18.111Z,38.22
2022-09-28T21:21:48.404Z,28.40
2022-09-28T21:24:18.874Z,24.83
2022-09-28T21:26:49.357Z,37.53
2022-09-28T21:29:19.771Z,28.50
2022-09-28T21:31:50.665Z,29.45
2022-09-28T21:34:22.574Z,31.08
2022-09-28T21:36:54.595Z,29.48
2022-09-28T21:39:25.117Z,29.67
2022-09-28T21:41:56.025Z,34.22
2022-09-28T21:44:26.336Z,30.70
2022-09-28T21:46:56.875Z,29.88
2022-09-28T21:49:27.308Z,29.90
2022-09-28T21:51:57.688Z,27.17
2022-09-28T21:54:28.063Z,31.05
2022-09-28T21:56:58.476Z,25.08
2022-09-28T21:59:28.800Z,30.55
2022-09-28T22:01:59.297Z,30.55
2022-09-28T22:04:29.593Z,27.20
2022-09-28T22:07:00.002Z,32.83
2022-09-28T22:09:30.493Z,31.88
2022-09-28T22:12:01.208Z,29.38
2022-09-28T22:14:31.616Z,25.25
2022-09-28T22:17:01.990Z,33.22
2022-09-28T22:19:32.658Z,26.08
2022-09-28T22:22:02.975Z,28.65
2022-09-28T22:24:33.343Z,31.30
2022-09-28T22:27:03.698Z,27.77
2022-09-28T22:29:34.048Z,28.63
2022-09-28T22:32:05.200Z,27.25
2022-09-28T22:34:36.009Z,29.30
2022-09-28T22:37:06.886Z,27.88
2022-09-28T22:39:37.991Z,30.35
2022-09-28T22:42:09.335Z,25.63
2022-09-28T22:44:39.857Z,30.70
2022-09-28T22:47:10.208Z,28.17
2022-09-28T22:49:40.579Z,24.70
2022-09-28T22:52:10.878Z,26.00
2022-09-28T22:54:42.542Z,25.48
2022-09-28T22:57:12.902Z,25.42
2022-09-28T22:59:43.206Z,22.92
2022-09-28T23:02:13.780Z,23.92
2022-09-28T23:04:44.086Z,24.95
2022-09-28T23:07:14.599Z,22.92
2022-09-28T23:09:44.936Z,27.38
2022-09-28T23:12:15.370Z,27.65
2022-09-28T23:14:46.022Z,24.00
2022-09-28T23:17:16.525Z,27.08
2022-09-28T23:19:46.898Z,26.98
2022-09-28T23:22:17.520Z,33.38
2022-09-28T23:24:47.895Z,29.75
2022-09-28T23:27:18.250Z,32.78
2022-09-28T23:29:49.658Z,34.85
2022-09-28T23:32:20.289Z,26.65
2022-09-28T23:34:50.667Z,28.80
2022-09-28T23:37:21.052Z,24.30
2022-09-28T23:39:52.247Z,29.45
2022-09-28T23:42:23.045Z,27.77
2022-09-28T23:44:53.365Z,25.98
2022-09-28T23:47:23.912Z,29.35
2022-09-28T23:49:54.416Z,25.75
2022-09-28T23:52:24.818Z,32.28
2022-09-28T23:54:55.297Z,29.50
2022-09-28T23:57:25.608Z,32.22
2022-09-28T23:59:55.962Z,38.90
